createdAt,value
2019-03-31T00:00:05.155Z,14.78
2019-03-31T00:02:33.561Z,15.38
2019-03-31T00:05:01.433Z,16.95
2019-03-31T00:07:29.199Z,16.35
2019-03-31T00:09:56.866Z,13.78
2019-03-31T00:12:24.731Z,15.53
2019-03-31T00:14:52.915Z,11.73
2019-03-31T00:17:21.112Z,15.68
2019-03-31T00:19:49.128Z,13.83
2019-03-31T00:22:17.559Z,13.58
2019-03-31T00:24:45.503Z,14.58
2019-03-31T00:27:13.230Z,15.90
2019-03-31T00:29:41.425Z,14.70
2019-03-31T00:32:09.591Z,12.03
2019-03-31T00:34:37.427Z,12.78
2019-03-31T00:37:07.665Z,14.80
2019-03-31T00:39:35.211Z,14.70
2019-03-31T00:42:03.471Z,13.10
2019-03-31T00:44:31.497Z,15.70
2019-03-31T00:47:02.184Z,13.08
2019-03-31T00:49:29.905Z,14.47
2019-03-31T00:51:58.036Z,12.93
2019-03-31T00:54:27.862Z,13.35
2019-03-31T00:56:57.482Z,13.90
2019-03-31T00:59:25.195Z,11.83
2019-03-31T01:01:55.108Z,13.88
2019-03-31T01:04:27.058Z,12.20
2019-03-31T01:06:55.616Z,11.03
2019-03-31T01:09:27.062Z,11.85
2019-03-31T01:11:55.566Z,14.38
2019-03-31T01:14:25.195Z,14.00
2019-03-31T01:16:54.207Z,13.72
2019-03-31T01:19:23.251Z,13.03
2019-03-31T01:21:52.322Z,12.68
2019-03-31T01:24:20.408Z,14.33
2019-03-31T01:26:48.434Z,13.87
2019-03-31T01:29:18.234Z,14.37
2019-03-31T01:31:50.596Z,12.83
2019-03-31T01:34:16.478Z,18.00
2019-03-31T01:36:44.579Z,13.83
2019-03-31T01:39:12.438Z,13.20
2019-03-31T01:41:40.955Z,13.50
2019-03-31T01:44:08.989Z,15.23
2019-03-31T01:46:37.483Z,15.67
2019-03-31T01:49:05.631Z,14.20
2019-03-31T01:51:33.550Z,11.87
2019-03-31T01:54:01.662Z,13.33
2019-03-31T01:56:29.465Z,14.50
2019-03-31T01:58:57.558Z,14.27
2019-03-31T02:01:26.152Z,13.55
2019-03-31T02:03:54.529Z,14.80
2019-03-31T02:06:22.750Z,13.60
2019-03-31T02:08:51.340Z,12.67
2019-03-31T02:11:19.319Z,16.57
2019-03-31T02:13:47.422Z,13.43
2019-03-31T02:16:15.268Z,15.50
2019-03-31T02:18:43.404Z,14.43
2019-03-31T02:21:12.316Z,15.63
2019-03-31T02:23:41.766Z,13.27
2019-03-31T02:26:09.510Z,14.13
2019-03-31T02:28:37.262Z,15.53
2019-03-31T02:31:05.506Z,14.37
2019-03-31T02:33:34.452Z,11.73
2019-03-31T02:36:02.195Z,13.70
2019-03-31T02:38:30.063Z,13.80
2019-03-31T02:40:58.183Z,11.67
2019-03-31T02:43:25.928Z,13.57
2019-03-31T02:45:53.735Z,11.87
2019-03-31T02:48:21.508Z,14.67
2019-03-31T02:50:50.496Z,14.43
2019-03-31T02:53:19.313Z,14.43
2019-03-31T02:55:47.546Z,14.20
2019-03-31T02:58:15.778Z,14.23
2019-03-31T03:00:44.276Z,12.63
2019-03-31T03:03:17.314Z,12.43
2019-03-31T03:05:45.814Z,14.37
2019-03-31T03:08:16.433Z,13.40
2019-03-31T03:10:46.396Z,11.80
2019-03-31T03:13:14.162Z,15.53
2019-03-31T03:16:19.568Z,13.17
2019-03-31T03:18:48.143Z,12.17
2019-03-31T03:21:16.924Z,13.70
2019-03-31T03:23:44.670Z,12.83
2019-03-31T03:26:13.215Z,12.00
2019-03-31T03:28:41.256Z,11.90
2019-03-31T03:31:15.010Z,13.73
2019-03-31T03:33:39.054Z,14.60
2019-03-31T03:36:07.071Z,11.73
2019-03-31T03:38:35.171Z,15.47
2019-03-31T03:41:02.994Z,11.93
2019-03-31T03:43:30.738Z,11.97
2019-03-31T03:45:58.707Z,17.23
2019-03-31T03:48:27.044Z,12.93
2019-03-31T03:50:55.552Z,13.00
2019-03-31T03:53:23.660Z,12.87
2019-03-31T03:55:51.366Z,14.77
2019-03-31T03:58:19.430Z,12.30
2019-03-31T04:00:47.883Z,14.20
2019-03-31T04:03:30.155Z,12.50
2019-03-31T04:05:45.998Z,13.33
2019-03-31T04:08:14.415Z,14.07
2019-03-31T04:11:21.126Z,13.57
2019-03-31T04:13:47.235Z,12.93
2019-03-31T04:16:16.188Z,13.43
2019-03-31T04:18:44.288Z,13.07
2019-03-31T04:21:12.702Z,11.37
2019-03-31T04:23:40.420Z,12.87
2019-03-31T04:26:08.187Z,12.87
2019-03-31T04:28:35.907Z,12.23
2019-03-31T04:31:04.188Z,11.53
2019-03-31T04:33:49.546Z,13.00
2019-03-31T04:36:02.040Z,15.83
2019-03-31T04:38:30.160Z,15.90
2019-03-31T04:40:58.676Z,11.67
2019-03-31T04:43:26.405Z,13.83
2019-03-31T04:45:54.181Z,13.70
2019-03-31T04:48:21.874Z,11.27
2019-03-31T04:50:52.047Z,12.47
2019-03-31T04:53:20.062Z,12.20
2019-03-31T04:55:48.215Z,10.63
2019-03-31T04:58:16.305Z,12.87
2019-03-31T05:00:43.966Z,12.70
2019-03-31T05:03:11.751Z,13.30
2019-03-31T05:05:41.695Z,11.67
2019-03-31T05:08:10.079Z,13.40
2019-03-31T05:10:37.841Z,12.90
2019-03-31T05:13:06.191Z,13.30
2019-03-31T05:15:34.302Z,15.60
2019-03-31T05:18:02.659Z,14.23
2019-03-31T05:20:30.417Z,12.63
2019-03-31T05:22:58.146Z,14.30
2019-03-31T05:25:26.887Z,14.30
2019-03-31T05:27:54.535Z,14.23
2019-03-31T05:30:22.925Z,11.43
2019-03-31T05:32:50.685Z,14.20
2019-03-31T05:35:18.801Z,14.17
2019-03-31T05:37:51.270Z,12.20
2019-03-31T05:40:16.679Z,11.73
2019-03-31T05:42:44.754Z,14.20
2019-03-31T05:45:12.531Z,15.13
2019-03-31T05:47:40.333Z,12.07
2019-03-31T05:50:08.568Z,11.40
2019-03-31T05:52:36.758Z,15.83
2019-03-31T05:55:04.562Z,14.27
2019-03-31T05:57:32.895Z,12.93
2019-03-31T06:00:00.934Z,12.87
2019-03-31T06:02:28.948Z,11.60
2019-03-31T06:04:56.697Z,15.27
2019-03-31T06:07:24.433Z,13.80
2019-03-31T06:09:52.556Z,12.47
2019-03-31T06:12:21.764Z,16.03
2019-03-31T06:14:49.741Z,13.17
2019-03-31T06:17:17.779Z,12.57
2019-03-31T06:19:45.545Z,13.43
2019-03-31T06:22:13.307Z,13.23
2019-03-31T06:24:41.683Z,14.07
2019-03-31T06:27:09.558Z,15.97
2019-03-31T06:29:37.984Z,19.53
2019-03-31T06:32:05.750Z,13.33
2019-03-31T06:34:46.782Z,13.67
2019-03-31T06:37:03.460Z,14.83
2019-03-31T06:39:34.107Z,16.10
2019-03-31T06:42:00.843Z,14.93
2019-03-31T06:44:28.932Z,17.00
2019-03-31T06:46:56.975Z,15.33
2019-03-31T06:49:24.718Z,20.63
2019-03-31T06:51:52.757Z,16.70
2019-03-31T06:54:20.837Z,16.07
2019-03-31T06:56:48.598Z,17.70
2019-03-31T06:59:16.371Z,19.50
2019-03-31T07:01:44.420Z,20.07
2019-03-31T07:04:12.688Z,23.50
2019-03-31T07:06:40.770Z,18.73
2019-03-31T07:09:08.848Z,20.60
2019-03-31T07:11:36.617Z,19.53
2019-03-31T07:14:04.430Z,20.97
2019-03-31T07:16:32.450Z,18.57
2019-03-31T07:19:00.484Z,20.50
2019-03-31T07:21:28.518Z,22.93
2019-03-31T07:23:57.619Z,21.57
2019-03-31T07:26:27.206Z,23.60
2019-03-31T07:28:55.347Z,21.93
2019-03-31T07:31:23.090Z,21.80
2019-03-31T07:33:51.196Z,22.47
2019-03-31T07:36:18.946Z,20.23
2019-03-31T07:38:47.470Z,21.07
2019-03-31T07:41:15.771Z,23.97
2019-03-31T07:43:43.961Z,23.63
2019-03-31T07:46:11.683Z,23.53
2019-03-31T07:48:40.446Z,30.47
2019-03-31T07:51:08.530Z,23.77
2019-03-31T07:53:37.500Z,26.17
2019-03-31T07:56:05.871Z,25.23
2019-03-31T07:58:34.254Z,24.57
2019-03-31T08:01:02.245Z,23.75
2019-03-31T08:03:30.635Z,27.62
2019-03-31T08:05:59.039Z,27.67
2019-03-31T08:08:27.162Z,24.82
2019-03-31T08:10:54.918Z,27.17
2019-03-31T08:13:23.003Z,24.95
2019-03-31T08:15:50.774Z,26.75
2019-03-31T08:18:18.899Z,24.30
2019-03-31T08:20:46.634Z,26.40
2019-03-31T08:23:14.416Z,25.62
2019-03-31T08:25:42.161Z,24.32
2019-03-31T08:28:10.215Z,24.80
2019-03-31T08:30:38.657Z,27.30
2019-03-31T08:33:06.518Z,23.62
2019-03-31T08:35:46.669Z,23.73
2019-03-31T08:38:04.702Z,24.95
2019-03-31T08:40:32.463Z,23.75
2019-03-31T08:43:00.227Z,25.25
2019-03-31T08:45:30.352Z,25.40
2019-03-31T08:47:57.932Z,25.00
2019-03-31T08:50:25.651Z,32.00
2019-03-31T08:52:53.782Z,28.60
2019-03-31T08:55:21.442Z,26.25
2019-03-31T08:57:49.188Z,27.82
2019-03-31T09:00:26.094Z,27.93
2019-03-31T09:02:53.837Z,26.20
2019-03-31T09:05:21.941Z,27.80
2019-03-31T09:07:50.034Z,34.18
2019-03-31T09:10:18.198Z,26.10
2019-03-31T09:12:48.404Z,25.57
2019-03-31T09:15:16.185Z,29.37
2019-03-31T09:17:43.911Z,29.40
2019-03-31T09:20:12.854Z,33.58
2019-03-31T09:22:40.618Z,28.15
2019-03-31T09:25:09.006Z,33.33
2019-03-31T09:27:37.054Z,38.55
2019-03-31T09:30:07.589Z,34.67
2019-03-31T09:32:35.682Z,34.48
2019-03-31T09:35:04.309Z,40.78
2019-03-31T09:37:32.051Z,36.38
2019-03-31T09:40:00.409Z,38.02
2019-03-31T09:42:28.319Z,37.60
2019-03-31T09:44:57.877Z,37.80
2019-03-31T09:47:25.600Z,39.58
2019-03-31T09:49:53.340Z,39.08
2019-03-31T09:52:21.113Z,35.30
2019-03-31T09:54:49.322Z,36.33
2019-03-31T09:57:17.052Z,35.60
2019-03-31T09:59:44.803Z,41.50
2019-03-31T10:02:12.635Z,44.13
2019-03-31T10:04:40.819Z,44.10
2019-03-31T10:07:08.569Z,40.95
2019-03-31T10:09:37.323Z,40.65
2019-03-31T10:12:05.036Z,44.70
2019-03-31T10:14:33.014Z,46.95
2019-03-31T10:17:00.823Z,48.83
2019-03-31T10:19:28.913Z,49.73
2019-03-31T10:21:56.694Z,50.50
2019-03-31T10:24:25.826Z,52.27
2019-03-31T10:26:54.231Z,53.95
2019-03-31T10:29:22.664Z,53.08
2019-03-31T10:31:50.475Z,53.63
2019-03-31T10:34:19.330Z,54.80
2019-03-31T10:36:47.083Z,52.17
2019-03-31T10:39:14.861Z,55.65
2019-03-31T10:41:43.249Z,54.00
2019-03-31T10:44:11.935Z,54.03
2019-03-31T10:46:40.214Z,53.68
2019-03-31T10:49:08.690Z,52.90
2019-03-31T10:51:36.790Z,54.93
2019-03-31T10:54:05.301Z,55.63
2019-03-31T10:56:33.129Z,54.70
2019-03-31T10:59:00.897Z,56.02
2019-03-31T11:01:28.534Z,53.05
2019-03-31T11:03:56.854Z,49.88
2019-03-31T11:06:24.616Z,55.92
2019-03-31T11:08:52.713Z,54.20
2019-03-31T11:11:20.446Z,47.90
2019-03-31T11:13:48.447Z,51.25
2019-03-31T11:16:16.077Z,54.15
2019-03-31T11:18:44.571Z,52.78
2019-03-31T11:21:33.383Z,50.35
2019-03-31T11:24:01.098Z,51.42
2019-03-31T11:26:29.682Z,53.02
2019-03-31T11:28:57.343Z,51.92
2019-03-31T11:31:25.426Z,49.38
2019-03-31T11:33:53.417Z,53.02
2019-03-31T11:36:21.159Z,50.83
2019-03-31T11:38:49.036Z,55.15
2019-03-31T11:41:16.904Z,52.23
2019-03-31T11:43:44.915Z,52.20
2019-03-31T11:46:12.665Z,51.42
2019-03-31T11:48:41.192Z,59.00
2019-03-31T11:51:09.437Z,58.63
2019-03-31T11:53:37.455Z,54.90
2019-03-31T11:56:05.226Z,54.42
2019-03-31T11:58:33.452Z,53.90
2019-03-31T12:01:02.059Z,58.30
2019-03-31T12:03:31.141Z,53.00
2019-03-31T12:05:59.212Z,56.10
2019-03-31T12:08:26.855Z,56.83
2019-03-31T12:10:54.651Z,52.48
2019-03-31T12:13:23.046Z,52.45
2019-03-31T12:15:51.430Z,52.50
2019-03-31T12:18:19.134Z,58.15
2019-03-31T12:20:46.907Z,56.70
2019-03-31T12:23:15.964Z,50.52
2019-03-31T12:25:44.043Z,49.45
2019-03-31T12:28:12.012Z,54.70
2019-03-31T12:30:40.390Z,52.00
2019-03-31T12:33:08.897Z,53.68
2019-03-31T12:35:37.887Z,51.33
2019-03-31T12:38:05.632Z,50.38
2019-03-31T12:40:34.662Z,52.23
2019-03-31T12:43:02.993Z,54.20
2019-03-31T12:45:31.179Z,49.70
2019-03-31T12:48:01.217Z,51.83
2019-03-31T12:50:29.113Z,50.30
2019-03-31T12:52:57.175Z,49.58
2019-03-31T12:55:25.553Z,47.35
2019-03-31T12:57:53.357Z,52.10
2019-03-31T13:00:21.636Z,53.60
2019-03-31T13:02:49.839Z,48.23
2019-03-31T13:05:18.186Z,47.45
2019-03-31T13:07:56.119Z,50.55
2019-03-31T13:10:17.335Z,45.48
2019-03-31T13:12:45.946Z,46.15
2019-03-31T13:15:15.080Z,48.85
2019-03-31T13:17:42.844Z,49.03
2019-03-31T13:20:10.984Z,47.10
2019-03-31T13:22:38.751Z,44.23
2019-03-31T13:25:06.519Z,44.50
2019-03-31T13:27:34.299Z,43.40
2019-03-31T13:30:02.767Z,44.35
2019-03-31T13:32:30.498Z,40.92
2019-03-31T13:34:58.328Z,41.02
2019-03-31T13:37:26.340Z,38.58
2019-03-31T13:39:54.401Z,39.88
2019-03-31T13:42:22.158Z,34.55
2019-03-31T13:44:49.890Z,37.58
2019-03-31T13:47:17.712Z,39.08
2019-03-31T13:49:45.506Z,36.93
2019-03-31T13:52:13.610Z,33.58
2019-03-31T13:54:42.630Z,32.75
2019-03-31T13:57:10.861Z,33.73
2019-03-31T13:59:38.987Z,33.00
2019-03-31T14:02:07.035Z,33.23
2019-03-31T14:04:37.123Z,31.15
2019-03-31T14:07:05.042Z,30.37
2019-03-31T14:09:33.062Z,30.97
2019-03-31T14:12:01.759Z,31.50
2019-03-31T14:14:29.833Z,27.22
2019-03-31T14:16:57.699Z,26.82
2019-03-31T14:19:25.787Z,31.20
2019-03-31T14:21:54.309Z,28.73
2019-03-31T14:24:22.361Z,30.15
2019-03-31T14:26:50.582Z,27.77
2019-03-31T14:29:19.010Z,28.65
2019-03-31T14:31:47.100Z,26.85
2019-03-31T14:34:15.230Z,29.52
2019-03-31T14:36:42.983Z,25.65
2019-03-31T14:39:11.022Z,23.83
2019-03-31T14:41:39.086Z,25.17
2019-03-31T14:44:07.458Z,28.67
2019-03-31T14:46:35.568Z,23.52
2019-03-31T14:49:03.653Z,25.88
2019-03-31T14:51:32.006Z,28.07
2019-03-31T14:54:00.702Z,25.12
2019-03-31T14:56:28.766Z,23.62
2019-03-31T14:58:56.407Z,30.10
2019-03-31T15:01:24.819Z,23.98
2019-03-31T15:03:52.937Z,23.52
2019-03-31T15:06:21.150Z,25.25
2019-03-31T15:08:54.679Z,25.70
2019-03-31T15:11:21.933Z,26.17
2019-03-31T15:13:49.170Z,24.55
2019-03-31T15:16:17.776Z,22.60
2019-03-31T15:18:46.259Z,25.52
2019-03-31T15:21:14.318Z,25.70
2019-03-31T15:23:42.474Z,26.82
2019-03-31T15:26:10.242Z,24.15
2019-03-31T15:28:38.008Z,28.02
2019-03-31T15:31:05.763Z,26.70
2019-03-31T15:33:33.855Z,26.20
2019-03-31T15:36:01.963Z,25.68
2019-03-31T15:38:30.362Z,22.62
2019-03-31T15:40:58.072Z,23.55
2019-03-31T15:43:25.831Z,26.17
2019-03-31T15:45:54.150Z,26.60
2019-03-31T15:48:22.843Z,25.57
2019-03-31T15:50:52.063Z,25.80
2019-03-31T15:53:21.023Z,27.15
2019-03-31T15:55:49.064Z,22.42
2019-03-31T15:58:26.792Z,27.22
2019-03-31T16:00:54.535Z,27.25
2019-03-31T16:03:22.784Z,26.77
2019-03-31T16:05:50.864Z,25.17
2019-03-31T16:08:18.420Z,24.02
2019-03-31T16:10:45.594Z,26.62
2019-03-31T16:13:13.144Z,27.07
2019-03-31T16:15:40.702Z,24.52
2019-03-31T16:18:08.175Z,30.05
2019-03-31T16:20:35.623Z,27.67
2019-03-31T16:23:03.226Z,22.02
2019-03-31T16:25:33.667Z,25.45
2019-03-31T16:28:01.193Z,22.95
2019-03-31T16:30:28.924Z,23.77
2019-03-31T16:32:56.431Z,22.73
2019-03-31T16:35:23.893Z,26.50
2019-03-31T16:37:51.756Z,25.60
2019-03-31T16:40:29.623Z,27.60
2019-03-31T16:42:56.823Z,25.80
2019-03-31T16:45:24.383Z,26.10
2019-03-31T16:47:51.850Z,24.87
2019-03-31T16:50:19.077Z,23.85
2019-03-31T16:52:46.318Z,25.02
2019-03-31T16:55:39.892Z,24.43
2019-03-31T16:58:09.455Z,25.37
2019-03-31T17:00:37.087Z,22.17
2019-03-31T17:03:04.635Z,23.30
2019-03-31T17:05:32.235Z,22.82
2019-03-31T17:08:00.006Z,25.05
2019-03-31T17:10:27.661Z,22.90
2019-03-31T17:12:55.871Z,23.22
2019-03-31T17:15:23.266Z,23.12
2019-03-31T17:17:50.522Z,22.10
2019-03-31T17:20:18.248Z,20.72
2019-03-31T17:22:45.559Z,23.25
2019-03-31T17:25:13.079Z,24.15
2019-03-31T17:27:40.704Z,23.73
2019-03-31T17:30:08.676Z,24.23
2019-03-31T17:32:35.878Z,22.10
2019-03-31T17:35:03.808Z,19.67
2019-03-31T17:37:31.271Z,20.92
2019-03-31T17:40:06.135Z,20.05
2019-03-31T17:42:29.166Z,20.68
2019-03-31T17:44:56.453Z,19.23
2019-03-31T17:47:23.660Z,18.45
2019-03-31T17:49:50.871Z,23.87
2019-03-31T17:52:17.975Z,18.12
2019-03-31T17:54:45.167Z,21.62
2019-03-31T17:57:12.375Z,16.90
2019-03-31T17:59:39.571Z,19.57
2019-03-31T18:02:07.543Z,16.95
2019-03-31T18:04:38.155Z,23.15
2019-03-31T18:07:04.166Z,16.20
2019-03-31T18:09:31.339Z,20.25
2019-03-31T18:11:59.603Z,18.82
2019-03-31T18:14:26.774Z,18.90
2019-03-31T18:16:54.650Z,19.40
2019-03-31T18:19:22.527Z,19.57
2019-03-31T18:21:50.048Z,17.12
2019-03-31T18:24:17.542Z,14.95
2019-03-31T18:26:45.126Z,19.82
2019-03-31T18:29:12.709Z,14.33
2019-03-31T18:31:39.907Z,13.35
2019-03-31T18:34:07.498Z,12.65
2019-03-31T18:36:36.758Z,13.88
2019-03-31T18:39:05.998Z,12.03
2019-03-31T18:41:33.171Z,12.53
2019-03-31T18:44:00.373Z,12.30
2019-03-31T18:46:28.194Z,15.48
2019-03-31T18:48:55.415Z,14.25
2019-03-31T18:51:22.518Z,11.45
2019-03-31T18:54:14.954Z,13.22
2019-03-31T18:56:48.462Z,11.80
2019-03-31T18:59:33.823Z,12.13
2019-03-31T19:02:11.830Z,11.43
2019-03-31T19:04:59.188Z,13.32
2019-03-31T19:07:41.948Z,12.53
2019-03-31T19:10:27.934Z,14.78
2019-03-31T19:13:05.740Z,8.63
2019-03-31T19:15:40.726Z,11.68
2019-03-31T19:18:39.484Z,11.22
2019-03-31T19:21:12.794Z,12.37
2019-03-31T19:24:06.055Z,11.97
2019-03-31T19:26:52.425Z,11.40
2019-03-31T19:29:37.870Z,10.63
2019-03-31T19:32:25.034Z,11.93
2019-03-31T19:35:11.366Z,10.25
2019-03-31T19:37:54.145Z,9.65
2019-03-31T19:41:03.425Z,10.98
2019-03-31T19:43:41.660Z,9.30
2019-03-31T19:46:37.456Z,9.40
2019-03-31T19:49:33.372Z,9.60
2019-03-31T19:52:24.766Z,11.85
2019-03-31T19:55:10.525Z,9.73
2019-03-31T19:58:03.339Z,12.25
2019-03-31T20:00:42.605Z,12.25
2019-03-31T20:03:25.542Z,10.38
2019-03-31T20:06:12.987Z,12.20
2019-03-31T20:08:57.590Z,11.40
2019-03-31T20:11:53.449Z,10.72
2019-03-31T20:14:38.807Z,9.60
2019-03-31T20:17:25.693Z,12.47
2019-03-31T20:20:15.459Z,10.72
2019-03-31T20:22:51.992Z,12.25
2019-03-31T20:25:34.127Z,10.72
2019-03-31T20:28:21.386Z,11.83
2019-03-31T20:31:08.260Z,11.75
2019-03-31T20:33:51.222Z,10.13
2019-03-31T20:36:36.855Z,11.57
2019-03-31T20:39:25.414Z,9.08
2019-03-31T20:42:11.565Z,10.13
2019-03-31T20:44:39.298Z,9.25
2019-03-31T20:47:06.726Z,9.83
2019-03-31T20:49:33.953Z,10.28
2019-03-31T20:52:01.663Z,8.98
2019-03-31T20:54:32.879Z,10.55
2019-03-31T20:56:59.234Z,8.05
2019-03-31T20:59:26.815Z,9.18
2019-03-31T21:01:54.144Z,10.35
2019-03-31T21:04:21.374Z,8.45
2019-03-31T21:06:49.193Z,9.25
2019-03-31T21:09:16.403Z,8.55
2019-03-31T21:11:43.609Z,9.33
2019-03-31T21:14:11.145Z,8.70
2019-03-31T21:16:39.673Z,9.30
2019-03-31T21:19:07.185Z,10.05
2019-03-31T21:21:34.396Z,9.73
2019-03-31T21:24:01.915Z,8.70
2019-03-31T21:26:29.498Z,10.45
2019-03-31T21:28:56.714Z,8.75
2019-03-31T21:31:24.179Z,8.15
2019-03-31T21:33:51.385Z,8.18
2019-03-31T21:36:18.950Z,10.35
2019-03-31T21:38:46.140Z,11.48
2019-03-31T21:41:14.302Z,9.53
2019-03-31T21:43:42.165Z,9.03
2019-03-31T21:46:09.844Z,11.18
2019-03-31T21:48:37.105Z,8.55
2019-03-31T21:51:06.519Z,10.50
2019-03-31T21:53:36.117Z,10.15
2019-03-31T21:56:06.219Z,12.45
2019-03-31T21:58:33.491Z,9.93
2019-03-31T22:01:00.790Z,9.70
2019-03-31T22:03:28.706Z,8.10
2019-03-31T22:05:56.262Z,9.13
2019-03-31T22:08:24.444Z,10.68
2019-03-31T22:10:51.669Z,8.73
2019-03-31T22:13:19.862Z,10.00
2019-03-31T22:15:47.490Z,11.05
2019-03-31T22:18:14.995Z,11.10
2019-03-31T22:20:42.954Z,8.75
2019-03-31T22:23:10.174Z,11.25
2019-03-31T22:25:38.123Z,8.03
2019-03-31T22:28:05.999Z,8.75
2019-03-31T22:30:35.261Z,8.88
2019-03-31T22:33:02.730Z,8.10
2019-03-31T22:35:29.963Z,10.88
2019-03-31T22:37:57.171Z,9.18
2019-03-31T22:40:24.630Z,13.65
2019-03-31T22:42:52.195Z,8.80
2019-03-31T22:45:20.080Z,9.35
2019-03-31T22:47:47.934Z,10.08
2019-03-31T22:50:15.813Z,9.03
2019-03-31T22:52:45.217Z,10.68
2019-03-31T22:55:12.794Z,10.40
2019-03-31T22:57:40.546Z,9.20
2019-03-31T23:00:12.689Z,9.98
2019-03-31T23:02:39.902Z,10.68
2019-03-31T23:05:08.325Z,8.75
2019-03-31T23:07:35.931Z,12.45
2019-03-31T23:10:03.659Z,11.83
2019-03-31T23:12:31.153Z,13.78
2019-03-31T23:14:58.384Z,9.45
2019-03-31T23:17:25.551Z,11.93
2019-03-31T23:19:52.760Z,8.50
2019-03-31T23:22:20.240Z,12.13
2019-03-31T23:24:47.715Z,10.70
2019-03-31T23:27:14.961Z,15.03
2019-03-31T23:29:42.322Z,12.83
2019-03-31T23:32:10.133Z,8.97
2019-03-31T23:34:37.345Z,9.93
2019-03-31T23:37:04.818Z,11.33
2019-03-31T23:39:32.379Z,8.83
2019-03-31T23:41:59.679Z,11.23
2019-03-31T23:44:26.923Z,9.87
2019-03-31T23:46:54.403Z,9.20
2019-03-31T23:49:21.602Z,8.70
2019-03-31T23:51:49.512Z,8.83
2019-03-31T23:54:17.165Z,10.57
2019-03-31T23:56:44.640Z,8.77
2019-03-31T23:59:12.110Z,10.17
